createdAt,value
2019-03-28T00:02:08.949Z,84.37
2019-03-28T00:04:35.761Z,85.10
2019-03-28T00:07:02.556Z,83.45
2019-03-28T00:09:29.430Z,90.97
2019-03-28T00:11:56.231Z,84.67
2019-03-28T00:14:23.004Z,85.65
2019-03-28T00:16:50.168Z,89.20
2019-03-28T00:19:17.091Z,83.92
2019-03-28T00:21:43.962Z,93.47
2019-03-28T00:24:12.972Z,81.28
2019-03-28T00:26:40.214Z,83.10
2019-03-28T00:29:06.977Z,84.50
2019-03-28T00:31:33.947Z,83.95
2019-03-28T00:34:02.674Z,84.03
2019-03-28T00:36:29.490Z,88.15
2019-03-28T00:38:56.461Z,90.97
2019-03-28T00:41:23.552Z,86.05
2019-03-28T00:43:51.329Z,85.60
2019-03-28T00:46:18.149Z,82.57
2019-03-28T00:48:44.925Z,78.07
2019-03-28T00:51:11.912Z,80.45
2019-03-28T00:53:39.319Z,85.92
2019-03-28T00:56:06.377Z,85.97
2019-03-28T00:58:33.252Z,76.40
2019-03-28T01:01:00.064Z,82.55
2019-03-28T01:03:26.826Z,89.58
2019-03-28T01:05:53.589Z,81.45
2019-03-28T01:08:20.417Z,83.80
2019-03-28T01:10:47.396Z,78.72
2019-03-28T01:13:14.902Z,77.97
2019-03-28T01:15:41.718Z,83.33
2019-03-28T01:18:08.569Z,83.60
2019-03-28T01:20:35.943Z,88.90
2019-03-28T01:23:03.027Z,82.20
2019-03-28T01:25:29.793Z,78.22
2019-03-28T01:27:56.581Z,76.62
2019-03-28T01:30:23.507Z,78.00
2019-03-28T01:32:51.001Z,75.32
2019-03-28T01:35:17.826Z,82.90
2019-03-28T01:37:44.587Z,77.50
2019-03-28T01:40:11.509Z,77.25
2019-03-28T01:42:38.294Z,75.83
2019-03-28T01:45:05.387Z,73.07
2019-03-28T01:47:32.272Z,77.15
2019-03-28T01:49:59.045Z,69.07
2019-03-28T01:52:25.864Z,72.78
2019-03-28T01:54:52.797Z,71.42
2019-03-28T01:57:19.803Z,72.55
2019-03-28T01:59:46.659Z,74.40
2019-03-28T02:02:13.483Z,68.97
2019-03-28T02:04:40.236Z,76.82
2019-03-28T02:07:07.325Z,76.55
2019-03-28T02:09:34.146Z,71.00
2019-03-28T02:12:00.949Z,79.10
2019-03-28T02:14:27.725Z,67.58
2019-03-28T02:16:54.729Z,70.97
2019-03-28T02:19:21.473Z,77.42
2019-03-28T02:21:48.541Z,77.53
2019-03-28T02:24:16.371Z,67.00
2019-03-28T02:26:43.086Z,69.58
2019-03-28T02:29:09.873Z,72.95
2019-03-28T02:31:36.717Z,70.67
2019-03-28T02:34:03.536Z,75.65
2019-03-28T02:36:30.283Z,69.60
2019-03-28T02:38:57.113Z,69.97
2019-03-28T02:41:24.053Z,68.95
2019-03-28T02:43:50.784Z,71.28
2019-03-28T02:46:17.499Z,74.32
2019-03-28T02:48:44.325Z,69.07
2019-03-28T02:51:11.267Z,73.25
2019-03-28T02:53:39.556Z,71.35
2019-03-28T02:56:06.483Z,72.50
2019-03-28T02:58:33.368Z,65.47
2019-03-28T03:01:00.176Z,67.12
2019-03-28T03:03:26.983Z,65.35
2019-03-28T03:05:53.789Z,65.55
2019-03-28T03:08:20.526Z,70.47
2019-03-28T03:10:47.361Z,66.55
2019-03-28T03:13:14.160Z,66.17
2019-03-28T03:15:40.886Z,69.72
2019-03-28T03:18:08.487Z,66.47
2019-03-28T03:20:35.560Z,66.47
2019-03-28T03:23:02.400Z,69.15
2019-03-28T03:25:29.364Z,67.40
2019-03-28T03:27:58.391Z,63.65
2019-03-28T03:30:25.742Z,71.15
2019-03-28T03:32:52.583Z,66.77
2019-03-28T03:35:19.567Z,63.28
2019-03-28T03:37:46.293Z,63.25
2019-03-28T03:40:13.042Z,62.00
2019-03-28T03:42:39.899Z,67.50
2019-03-28T03:45:07.160Z,67.30
2019-03-28T03:47:33.848Z,67.50
2019-03-28T03:50:00.620Z,61.58
2019-03-28T03:52:27.440Z,61.45
2019-03-28T03:54:54.911Z,59.70
2019-03-28T03:57:21.682Z,60.25
2019-03-28T03:59:48.402Z,62.10
2019-03-28T04:02:15.453Z,57.00
2019-03-28T04:04:42.396Z,65.57
2019-03-28T04:07:09.302Z,63.85
2019-03-28T04:09:36.214Z,58.25
2019-03-28T04:12:03.154Z,66.92
2019-03-28T04:14:30.002Z,63.35
2019-03-28T04:16:57.412Z,59.13
2019-03-28T04:19:24.276Z,63.63
2019-03-28T04:21:51.024Z,70.40
2019-03-28T04:24:17.963Z,71.65
2019-03-28T04:26:44.922Z,67.25
2019-03-28T04:29:12.232Z,64.07
2019-03-28T04:31:39.276Z,68.02
2019-03-28T04:34:07.795Z,68.50
2019-03-28T04:36:34.892Z,67.70
2019-03-28T04:39:01.729Z,64.30
2019-03-28T04:41:28.545Z,70.90
2019-03-28T04:43:56.057Z,67.67
2019-03-28T04:46:23.075Z,70.65
2019-03-28T04:48:50.814Z,81.25
2019-03-28T04:51:17.840Z,66.82
2019-03-28T04:53:44.612Z,70.57
2019-03-28T04:56:12.661Z,78.20
2019-03-28T04:58:44.736Z,78.10
2019-03-28T05:03:36.753Z,74.82
2019-03-28T05:06:03.588Z,66.85
2019-03-28T05:08:30.478Z,74.47
2019-03-28T05:10:58.738Z,71.00
2019-03-28T05:13:25.863Z,75.67
2019-03-28T05:15:54.643Z,81.55
2019-03-28T05:18:21.843Z,77.25
2019-03-28T05:20:48.871Z,74.15
2019-03-28T05:23:15.683Z,72.15
2019-03-28T05:25:42.485Z,73.10
2019-03-28T05:28:09.662Z,69.07
2019-03-28T05:30:36.957Z,76.60
2019-03-28T05:33:05.817Z,74.50
2019-03-28T05:35:34.560Z,73.45
2019-03-28T05:38:02.808Z,72.08
2019-03-28T05:40:29.623Z,77.85
2019-03-28T05:42:56.410Z,79.15
2019-03-28T05:45:25.025Z,75.17
2019-03-28T05:47:51.961Z,82.65
2019-03-28T05:50:18.977Z,78.72
2019-03-28T05:52:45.815Z,74.07
2019-03-28T05:55:12.678Z,77.60
2019-03-28T05:57:39.531Z,79.77
2019-03-28T06:00:06.583Z,78.78
2019-03-28T06:02:33.386Z,77.25
2019-03-28T06:05:00.614Z,75.60
2019-03-28T06:07:27.764Z,81.50
2019-03-28T06:09:54.587Z,84.92
2019-03-28T06:12:21.401Z,85.97
2019-03-28T06:14:48.198Z,87.82
2019-03-28T06:17:15.330Z,85.22
2019-03-28T06:19:42.069Z,88.12
2019-03-28T06:22:10.466Z,95.40
2019-03-28T06:24:37.630Z,90.50
2019-03-28T06:27:05.605Z,91.37
2019-03-28T06:29:33.507Z,84.22
2019-03-28T06:32:00.552Z,87.17
2019-03-28T06:34:27.976Z,91.32
2019-03-28T06:36:54.922Z,84.55
2019-03-28T06:39:23.530Z,79.53
2019-03-28T06:41:52.519Z,76.80
2019-03-28T06:44:19.620Z,86.67
2019-03-28T06:46:47.087Z,80.20
2019-03-28T06:49:14.472Z,75.25
2019-03-28T06:51:41.207Z,77.20
2019-03-28T06:54:08.294Z,84.50
2019-03-28T06:56:35.948Z,81.45
2019-03-28T06:59:06.940Z,74.85
2019-03-28T07:01:33.794Z,71.72
2019-03-28T07:04:20.075Z,73.78
2019-03-28T07:06:48.867Z,75.62
2019-03-28T07:09:37.085Z,72.10
2019-03-28T07:12:23.292Z,67.30
2019-03-28T07:15:08.341Z,62.15
2019-03-28T07:17:43.465Z,72.35
2019-03-28T07:20:10.472Z,71.10
2019-03-28T07:22:37.604Z,65.55
2019-03-28T07:25:05.524Z,64.03
2019-03-28T07:27:32.725Z,68.95
2019-03-28T07:30:01.534Z,59.83
2019-03-28T07:32:28.454Z,63.42
2019-03-28T07:34:55.423Z,61.50
2019-03-28T07:37:24.083Z,64.82
2019-03-28T07:39:51.515Z,73.70
2019-03-28T07:42:20.147Z,70.22
2019-03-28T07:45:04.770Z,69.67
2019-03-28T07:48:03.339Z,65.60
2019-03-28T07:50:33.284Z,67.00
2019-03-28T07:52:59.283Z,57.50
2019-03-28T07:55:26.585Z,64.25
2019-03-28T07:57:53.534Z,61.95
2019-03-28T08:00:20.896Z,55.20
2019-03-28T08:02:48.072Z,56.33
2019-03-28T08:05:16.761Z,60.88
2019-03-28T08:07:45.590Z,57.17
2019-03-28T08:10:15.044Z,56.98
2019-03-28T08:12:43.737Z,55.78
2019-03-28T08:15:18.476Z,50.78
2019-03-28T08:18:03.288Z,61.08
2019-03-28T08:20:48.434Z,60.25
2019-03-28T08:23:46.930Z,63.52
2019-03-28T08:26:31.769Z,57.13
2019-03-28T08:29:16.790Z,59.20
2019-03-28T08:31:45.901Z,53.50
2019-03-28T08:34:12.766Z,50.58
2019-03-28T08:36:39.678Z,51.33
2019-03-28T08:39:06.652Z,55.67
2019-03-28T08:41:33.412Z,53.68
2019-03-28T08:44:00.152Z,55.83
2019-03-28T08:46:27.124Z,64.70
2019-03-28T08:48:54.000Z,55.85
2019-03-28T08:51:20.882Z,58.35
2019-03-28T08:53:48.099Z,58.15
2019-03-28T08:56:14.999Z,64.07
2019-03-28T08:58:41.770Z,61.30
2019-03-28T09:01:08.603Z,64.40
2019-03-28T09:03:35.464Z,63.30
2019-03-28T09:06:02.191Z,61.28
2019-03-28T09:08:28.955Z,61.98
2019-03-28T09:10:56.363Z,64.72
2019-03-28T09:13:23.273Z,54.67
2019-03-28T09:15:50.045Z,50.65
2019-03-28T09:18:16.937Z,53.13
2019-03-28T09:20:43.651Z,48.08
2019-03-28T09:23:10.424Z,55.20
2019-03-28T09:25:37.281Z,50.67
2019-03-28T09:28:04.018Z,55.08
2019-03-28T09:30:47.381Z,58.50
2019-03-28T09:33:03.864Z,61.55
2019-03-28T09:35:30.634Z,58.38
2019-03-28T09:37:57.414Z,60.50
2019-03-28T09:40:24.193Z,63.30
2019-03-28T09:42:50.924Z,66.77
2019-03-28T09:45:17.752Z,66.55
2019-03-28T09:47:44.479Z,67.78
2019-03-28T09:50:11.463Z,68.67
2019-03-28T09:52:38.244Z,73.55
2019-03-28T09:55:05.072Z,63.58
2019-03-28T09:57:31.941Z,65.47
2019-03-28T09:59:58.701Z,61.48
2019-03-28T10:02:25.419Z,60.83
2019-03-28T10:04:52.263Z,62.58
2019-03-28T10:07:18.933Z,70.22
2019-03-28T10:09:46.272Z,60.67
2019-03-28T10:12:13.120Z,68.83
2019-03-28T10:14:39.913Z,62.35
2019-03-28T10:17:06.679Z,58.40
2019-03-28T10:19:33.562Z,53.90
2019-03-28T10:22:00.365Z,58.58
2019-03-28T10:24:27.197Z,64.00
2019-03-28T10:26:55.187Z,58.50
2019-03-28T10:29:21.937Z,54.80
2019-03-28T10:31:48.719Z,55.28
2019-03-28T10:34:15.467Z,58.45
2019-03-28T10:36:42.335Z,56.20
2019-03-28T10:39:09.215Z,58.78
2019-03-28T10:41:38.286Z,57.55
2019-03-28T10:44:04.642Z,53.30
2019-03-28T10:46:31.449Z,52.67
2019-03-28T10:48:58.307Z,57.48
2019-03-28T10:51:25.048Z,52.98
2019-03-28T10:53:51.844Z,55.43
2019-03-28T10:56:23.363Z,55.90
2019-03-28T10:58:47.703Z,52.70
2019-03-28T11:01:16.644Z,51.65
2019-03-28T11:03:43.291Z,57.55
2019-03-28T11:06:10.225Z,55.63
2019-03-28T11:08:37.102Z,54.13
2019-03-28T11:11:03.943Z,77.70
2019-03-28T11:13:30.867Z,59.98
2019-03-28T11:15:57.753Z,54.38
2019-03-28T11:18:24.634Z,53.52
2019-03-28T11:20:53.354Z,55.55
2019-03-28T11:23:20.128Z,51.92
2019-03-28T11:25:46.931Z,54.15
2019-03-28T11:28:13.766Z,54.75
2019-03-28T11:30:40.501Z,48.42
2019-03-28T11:33:07.265Z,55.00
2019-03-28T11:35:34.007Z,67.62
2019-03-28T11:38:00.795Z,54.40
2019-03-28T11:40:27.657Z,51.90
2019-03-28T11:42:54.396Z,54.42
2019-03-28T11:45:21.251Z,47.45
2019-03-28T11:47:48.115Z,51.40
2019-03-28T11:50:17.168Z,47.93
2019-03-28T11:52:43.550Z,52.80
2019-03-28T11:55:10.770Z,59.20
2019-03-28T11:57:39.664Z,43.48
2019-03-28T12:00:11.718Z,45.08
2019-03-28T12:02:38.534Z,48.60
2019-03-28T12:05:05.784Z,53.95
2019-03-28T12:07:32.768Z,46.40
2019-03-28T12:09:59.553Z,49.83
2019-03-28T12:12:26.937Z,52.27
2019-03-28T12:14:53.710Z,61.65
2019-03-28T12:17:20.483Z,58.52
2019-03-28T12:19:47.402Z,54.77
2019-03-28T12:22:14.366Z,53.30
2019-03-28T12:24:41.110Z,38.88
2019-03-28T12:27:08.118Z,21.33
2019-03-28T12:29:35.892Z,14.95
2019-03-28T12:32:13.338Z,14.38
2019-03-28T12:34:31.934Z,14.23
2019-03-28T12:36:58.680Z,14.23
2019-03-28T12:39:25.694Z,16.95
2019-03-28T12:41:52.407Z,25.85
2019-03-28T12:44:19.237Z,17.07
2019-03-28T12:46:46.189Z,18.42
2019-03-28T12:49:12.994Z,15.98
2019-03-28T12:51:39.726Z,20.57
2019-03-28T12:54:06.506Z,26.37
2019-03-28T12:56:33.362Z,25.00
2019-03-28T12:59:00.184Z,25.08
2019-03-28T13:01:26.968Z,27.65
2019-03-28T13:03:53.683Z,27.20
2019-03-28T13:06:22.820Z,26.75
2019-03-28T13:08:53.362Z,26.25
2019-03-28T13:11:20.264Z,25.25
2019-03-28T13:13:47.205Z,26.97
2019-03-28T13:16:13.995Z,26.48
2019-03-28T13:18:45.326Z,28.42
2019-03-28T13:21:14.191Z,27.13
2019-03-28T13:23:41.224Z,25.87
2019-03-28T13:26:09.371Z,19.95
2019-03-28T13:28:36.243Z,20.52
2019-03-28T13:31:03.194Z,22.62
2019-03-28T13:33:30.687Z,22.65
2019-03-28T13:35:57.646Z,24.55
2019-03-28T13:38:24.474Z,24.18
2019-03-28T13:40:51.697Z,22.20
2019-03-28T13:43:20.975Z,25.10
2019-03-28T13:45:53.656Z,29.13
2019-03-28T13:48:20.892Z,26.90
2019-03-28T13:50:47.969Z,28.65
2019-03-28T13:53:14.809Z,25.60
2019-03-28T13:55:41.562Z,25.90
2019-03-28T13:58:08.316Z,25.20
2019-03-28T14:00:35.356Z,25.82
2019-03-28T14:03:02.152Z,25.35
2019-03-28T14:05:28.964Z,24.72
2019-03-28T14:07:55.888Z,25.30
2019-03-28T14:10:22.682Z,27.10
2019-03-28T14:12:49.388Z,27.30
2019-03-28T14:15:16.166Z,29.10
2019-03-28T14:17:43.068Z,23.98
2019-03-28T14:20:09.791Z,27.62
2019-03-28T14:22:36.706Z,25.70
2019-03-28T14:25:06.478Z,25.62
2019-03-28T14:27:33.211Z,19.65
2019-03-28T14:30:00.158Z,19.48
2019-03-28T14:32:28.078Z,22.67
2019-03-28T14:34:55.563Z,22.62
2019-03-28T14:37:22.453Z,22.07
2019-03-28T14:39:49.465Z,21.77
2019-03-28T14:42:19.502Z,27.62
2019-03-28T14:44:45.452Z,22.90
2019-03-28T14:47:12.205Z,21.60
2019-03-28T14:49:39.175Z,20.92
2019-03-28T14:52:05.950Z,21.05
2019-03-28T14:54:32.681Z,24.47
2019-03-28T14:56:59.594Z,23.20
2019-03-28T14:59:32.462Z,24.07
2019-03-28T15:01:55.150Z,23.57
2019-03-28T15:04:21.916Z,24.87
2019-03-28T15:06:48.658Z,23.95
2019-03-28T15:09:15.407Z,28.02
2019-03-28T15:11:42.192Z,27.07
2019-03-28T15:14:08.919Z,32.33
2019-03-28T15:16:35.654Z,26.87
2019-03-28T15:19:02.407Z,26.12
2019-03-28T15:21:29.129Z,26.80
2019-03-28T15:23:55.961Z,28.92
2019-03-28T15:26:22.758Z,26.60
2019-03-28T15:28:49.486Z,27.35
2019-03-28T15:31:16.312Z,28.12
2019-03-28T15:33:43.144Z,25.52
2019-03-28T15:36:09.974Z,24.18
2019-03-28T15:38:36.734Z,23.92
2019-03-28T15:41:03.510Z,30.75
2019-03-28T15:43:30.325Z,24.10
2019-03-28T15:45:57.076Z,25.40
2019-03-28T15:48:23.916Z,28.73
2019-03-28T15:50:50.752Z,26.57
2019-03-28T15:53:17.492Z,29.12
2019-03-28T15:55:44.272Z,25.57
2019-03-28T15:58:22.663Z,25.35
2019-03-28T16:00:39.767Z,24.27
2019-03-28T16:03:06.577Z,25.62
2019-03-28T16:05:33.457Z,24.50
2019-03-28T16:08:01.050Z,25.92
2019-03-28T16:10:28.093Z,26.27
2019-03-28T16:12:54.934Z,26.17
2019-03-28T16:15:22.432Z,27.13
2019-03-28T16:17:49.729Z,26.70
2019-03-28T16:20:16.480Z,28.23
2019-03-28T16:22:43.256Z,31.73
2019-03-28T16:25:10.162Z,25.50
2019-03-28T16:27:37.096Z,34.73
2019-03-28T16:30:07.071Z,30.17
2019-03-28T16:35:00.607Z,31.37
2019-03-28T16:37:27.810Z,28.15
2019-03-28T16:39:54.756Z,29.10
2019-03-28T16:42:21.486Z,25.65
2019-03-28T16:44:49.278Z,24.80
2019-03-28T16:47:16.108Z,32.03
2019-03-28T16:49:42.997Z,26.55
2019-03-28T16:52:09.727Z,43.78
2019-03-28T16:54:36.475Z,35.38
2019-03-28T16:57:03.453Z,36.30
2019-03-28T16:59:30.359Z,38.48
2019-03-28T17:01:57.136Z,30.10
2019-03-28T17:04:23.946Z,36.60
2019-03-28T17:06:56.906Z,46.55
2019-03-28T17:10:40.907Z,37.25
2019-03-28T17:13:16.417Z,34.85
2019-03-28T17:15:43.309Z,33.40
2019-03-28T17:18:10.028Z,38.15
2019-03-28T17:20:36.884Z,35.10
2019-03-28T17:23:03.686Z,37.90
2019-03-28T17:25:32.701Z,38.00
2019-03-28T17:27:59.467Z,37.88
2019-03-28T17:30:26.983Z,37.05
2019-03-28T17:32:54.033Z,40.40
2019-03-28T17:35:20.993Z,39.85
2019-03-28T17:37:47.693Z,36.85
2019-03-28T17:40:14.429Z,43.87
2019-03-28T17:42:41.173Z,39.33
2019-03-28T17:45:08.083Z,41.90
2019-03-28T17:47:34.970Z,43.15
2019-03-28T17:50:01.837Z,39.30
2019-03-28T17:52:28.607Z,41.77
2019-03-28T17:54:55.465Z,39.00
2019-03-28T17:57:22.195Z,45.08
2019-03-28T17:59:49.038Z,42.43
2019-03-28T18:02:15.879Z,49.10
2019-03-28T18:04:48.229Z,47.35
2019-03-28T18:07:11.363Z,51.48
2019-03-28T18:09:38.285Z,49.05
2019-03-28T18:12:04.995Z,52.80
2019-03-28T18:14:31.871Z,52.67
2019-03-28T18:16:59.548Z,58.65
2019-03-28T18:19:26.387Z,52.43
2019-03-28T18:22:03.264Z,59.45
2019-03-28T18:24:21.920Z,53.13
2019-03-28T18:26:48.862Z,58.30
2019-03-28T18:29:19.005Z,60.58
2019-03-28T18:31:50.295Z,55.83
2019-03-28T18:34:13.046Z,63.85
2019-03-28T18:36:39.834Z,59.03
2019-03-28T18:39:06.636Z,63.50
2019-03-28T18:41:33.364Z,67.22
2019-03-28T18:44:00.123Z,72.58
2019-03-28T18:46:26.895Z,66.80
2019-03-28T18:48:53.632Z,68.85
2019-03-28T18:51:20.400Z,75.90
2019-03-28T18:53:47.146Z,69.25
2019-03-28T18:56:13.889Z,72.90
2019-03-28T18:58:40.677Z,82.10
2019-03-28T19:01:07.881Z,68.17
2019-03-28T19:03:35.719Z,78.87
2019-03-28T19:06:02.624Z,78.60
2019-03-28T19:08:29.350Z,75.40
2019-03-28T19:10:56.150Z,79.10
2019-03-28T19:13:23.026Z,78.95
2019-03-28T19:15:50.150Z,83.47
2019-03-28T19:18:16.966Z,90.47
2019-03-28T19:20:43.717Z,80.03
2019-03-28T19:23:10.440Z,73.45
2019-03-28T19:25:37.218Z,80.57
2019-03-28T19:28:07.265Z,78.72
2019-03-28T19:30:33.390Z,80.20
2019-03-28T19:33:00.373Z,75.25
2019-03-28T19:35:32.925Z,79.45
2019-03-28T19:37:56.000Z,85.97
2019-03-28T19:40:22.771Z,87.60
2019-03-28T19:42:49.752Z,99.80
2019-03-28T19:45:20.670Z,93.25
2019-03-28T19:47:47.438Z,97.50
2019-03-28T19:50:25.353Z,97.35
2019-03-28T19:52:52.193Z,101.72
2019-03-28T19:55:22.128Z,92.82
2019-03-28T19:57:48.882Z,111.08
2019-03-28T20:00:15.659Z,110.55
2019-03-28T20:02:42.534Z,114.60
2019-03-28T20:05:09.364Z,113.08
2019-03-28T20:07:36.040Z,118.93
2019-03-28T20:10:15.788Z,105.17
2019-03-28T20:12:32.549Z,116.62
2019-03-28T20:15:00.347Z,120.37
2019-03-28T20:17:27.441Z,114.92
2019-03-28T20:19:54.826Z,108.32
2019-03-28T20:22:21.845Z,113.03
2019-03-28T20:24:48.796Z,120.53
2019-03-28T20:27:15.579Z,112.97
2019-03-28T20:29:42.371Z,122.15
2019-03-28T20:32:09.197Z,121.02
2019-03-28T20:34:36.168Z,118.80
2019-03-28T20:37:03.115Z,119.77
2019-03-28T20:39:29.961Z,106.05
2019-03-28T20:41:56.728Z,107.45
2019-03-28T20:44:23.505Z,107.47
2019-03-28T20:46:50.273Z,108.95
2019-03-28T20:49:17.009Z,111.15
2019-03-28T20:51:43.798Z,106.20
2019-03-28T20:54:10.688Z,116.28
2019-03-28T20:56:37.522Z,113.83
2019-03-28T20:59:04.273Z,120.05
2019-03-28T21:01:31.173Z,120.77
2019-03-28T21:03:58.182Z,140.65
2019-03-28T21:06:24.949Z,124.47
2019-03-28T21:08:51.734Z,116.75
2019-03-28T21:11:18.501Z,128.05
2019-03-28T21:13:45.776Z,131.52
2019-03-28T21:16:12.600Z,123.67
2019-03-28T21:18:39.389Z,140.03
2019-03-28T21:21:06.165Z,131.90
2019-03-28T21:23:32.880Z,149.12
2019-03-28T21:25:59.671Z,149.05
2019-03-28T21:28:26.406Z,144.53
2019-03-28T21:30:53.178Z,143.78
2019-03-28T21:33:19.937Z,141.03
2019-03-28T21:35:47.189Z,140.88
2019-03-28T21:38:13.949Z,149.38
2019-03-28T21:40:40.799Z,146.05
2019-03-28T21:43:07.547Z,145.82
2019-03-28T21:45:34.401Z,144.28
2019-03-28T21:48:01.165Z,142.13
2019-03-28T21:50:27.883Z,136.47
2019-03-28T21:52:54.724Z,143.82
2019-03-28T21:55:21.477Z,127.87
2019-03-28T21:57:48.208Z,111.52
2019-03-28T22:00:15.510Z,109.20
2019-03-28T22:02:42.293Z,121.95
2019-03-28T22:05:09.051Z,114.95
2019-03-28T22:07:35.771Z,131.45
2019-03-28T22:10:08.345Z,127.12
2019-03-28T22:12:33.419Z,159.65
2019-03-28T22:15:00.356Z,163.22
2019-03-28T22:17:27.564Z,178.00
2019-03-28T22:19:54.277Z,172.93
2019-03-28T22:22:21.215Z,182.05
2019-03-28T22:24:47.948Z,170.17
2019-03-28T22:27:14.801Z,171.53
2019-03-28T22:29:41.676Z,175.65
2019-03-28T22:32:11.567Z,166.28
2019-03-28T22:34:37.199Z,178.25
2019-03-28T22:37:04.427Z,182.70
2019-03-28T22:39:31.161Z,173.35
2019-03-28T22:41:58.013Z,184.78
2019-03-28T22:44:25.034Z,177.35
2019-03-28T22:46:51.986Z,173.15
2019-03-28T22:49:18.751Z,176.72
2019-03-28T22:51:45.545Z,180.32
2019-03-28T22:54:12.303Z,158.95
2019-03-28T22:56:39.063Z,182.88
2019-03-28T22:59:05.816Z,174.53
2019-03-28T23:01:32.653Z,170.17
2019-03-28T23:03:59.505Z,165.70
2019-03-28T23:06:26.294Z,164.88
2019-03-28T23:08:53.002Z,166.60
2019-03-28T23:11:19.935Z,179.42
2019-03-28T23:13:46.696Z,177.17
2019-03-28T23:16:13.503Z,185.05
2019-03-28T23:18:40.217Z,167.62
2019-03-28T23:21:06.929Z,200.10
2019-03-28T23:23:33.740Z,182.72
2019-03-28T23:26:00.463Z,178.00
2019-03-28T23:28:27.214Z,199.02
2019-03-28T23:30:54.221Z,165.20
2019-03-28T23:33:21.674Z,179.85
2019-03-28T23:35:48.722Z,178.90
2019-03-28T23:38:15.545Z,199.87
2019-03-28T23:40:42.250Z,208.70
2019-03-28T23:43:09.293Z,186.28
2019-03-28T23:45:36.698Z,193.95
2019-03-28T23:48:03.457Z,177.07
2019-03-28T23:50:30.302Z,163.03
2019-03-28T23:52:57.182Z,165.75
2019-03-28T23:55:25.355Z,152.32
2019-03-28T23:57:52.142Z,163.80
